sensor_id;sensor_type;location;lat;lon;timestamp;P1;durP1;ratioP1;P2;durP2;ratioP2
55146;SDS011;41039;49.830;23.988;2024-01-10T00:01:11;12.60;;;10.40;;
55146;SDS011;41039;49.830;23.988;2024-01-10T00:03:36;12.27;;;10.53;;
55146;SDS011;41039;49.830;23.988;2024-01-10T00:06:01;14.47;;;11.50;;
55146;SDS011;41039;49.830;23.988;2024-01-10T00:08:26;10.95;;;9.75;;
55146;SDS011;41039;49.830;23.988;2024-01-10T00:10:52;12.30;;;10.97;;
55146;SDS011;41039;49.830;23.988;2024-01-10T00:13:19;12.35;;;11.05;;
55146;SDS011;41039;49.830;23.988;2024-01-10T00:15:44;12.43;;;11.13;;
55146;SDS011;41039;49.830;23.988;2024-01-10T00:18:09;12.97;;;10.70;;
55146;SDS011;41039;49.830;23.988;2024-01-10T00:20:35;12.07;;;10.57;;
55146;SDS011;41039;49.830;23.988;2024-01-10T00:23:00;12.27;;;10.23;;
55146;SDS011;41039;49.830;23.988;2024-01-10T00:25:25;12.37;;;11.00;;
55146;SDS011;41039;49.830;23.988;2024-01-10T00:27:50;12.50;;;10.73;;
55146;SDS011;41039;49.830;23.988;2024-01-10T00:30:15;12.57;;;10.87;;
55146;SDS011;41039;49.830;23.988;2024-01-10T00:32:41;13.63;;;11.45;;
55146;SDS011;41039;49.830;23.988;2024-01-10T00:35:06;13.93;;;11.50;;
55146;SDS011;41039;49.830;23.988;2024-01-10T00:37:31;12.63;;;11.10;;
55146;SDS011;41039;49.830;23.988;2024-01-10T00:39:57;12.15;;;10.88;;
55146;SDS011;41039;49.830;23.988;2024-01-10T00:42:22;12.98;;;11.50;;
55146;SDS011;41039;49.830;23.988;2024-01-10T00:44:47;11.95;;;10.65;;
55146;SDS011;41039;49.830;23.988;2024-01-10T00:47:13;11.60;;;10.13;;
55146;SDS011;41039;49.830;23.988;2024-01-10T00:49:38;13.43;;;11.20;;
55146;SDS011;41039;49.830;23.988;2024-01-10T00:52:03;11.77;;;10.53;;
55146;SDS011;41039;49.830;23.988;2024-01-10T00:54:29;12.52;;;10.68;;
55146;SDS011;41039;49.830;23.988;2024-01-10T00:56:54;12.60;;;11.15;;
55146;SDS011;41039;49.830;23.988;2024-01-10T00:59:19;12.63;;;10.57;;
55146;SDS011;41039;49.830;23.988;2024-01-10T01:01:44;11.60;;;10.40;;
55146;SDS011;41039;49.830;23.988;2024-01-10T01:04:10;12.52;;;11.00;;
55146;SDS011;41039;49.830;23.988;2024-01-10T01:06:35;13.10;;;10.88;;
55146;SDS011;41039;49.830;23.988;2024-01-10T01:09:00;12.03;;;10.63;;
55146;SDS011;41039;49.830;23.988;2024-01-10T01:11:25;13.00;;;11.47;;
55146;SDS011;41039;49.830;23.988;2024-01-10T01:13:51;12.20;;;10.90;;
55146;SDS011;41039;49.830;23.988;2024-01-10T01:16:16;13.20;;;11.03;;
55146;SDS011;41039;49.830;23.988;2024-01-10T01:18:41;13.80;;;11.38;;
55146;SDS011;41039;49.830;23.988;2024-01-10T01:21:10;12.85;;;11.38;;
55146;SDS011;41039;49.830;23.988;2024-01-10T01:23:35;12.98;;;11.30;;
55146;SDS011;41039;49.830;23.988;2024-01-10T01:26:00;13.17;;;11.43;;
55146;SDS011;41039;49.830;23.988;2024-01-10T01:28:26;15.35;;;11.30;;
55146;SDS011;41039;49.830;23.988;2024-01-10T01:30:51;13.65;;;11.95;;
55146;SDS011;41039;49.830;23.988;2024-01-10T01:33:16;12.57;;;11.27;;
55146;SDS011;41039;49.830;23.988;2024-01-10T01:35:42;12.98;;;11.45;;
55146;SDS011;41039;49.830;23.988;2024-01-10T01:38:07;13.25;;;11.00;;
55146;SDS011;41039;49.830;23.988;2024-01-10T01:40:32;13.77;;;12.02;;
55146;SDS011;41039;49.830;23.988;2024-01-10T01:42:58;14.17;;;11.83;;
55146;SDS011;41039;49.830;23.988;2024-01-10T01:45:23;13.60;;;11.63;;
55146;SDS011;41039;49.830;23.988;2024-01-10T01:47:49;14.38;;;11.90;;
55146;SDS011;41039;49.830;23.988;2024-01-10T01:50:14;13.25;;;11.70;;
55146;SDS011;41039;49.830;23.988;2024-01-10T01:52:40;15.82;;;12.68;;
55146;SDS011;41039;49.830;23.988;2024-01-10T01:55:05;13.90;;;11.88;;
55146;SDS011;41039;49.830;23.988;2024-01-10T01:57:32;13.60;;;11.63;;
55146;SDS011;41039;49.830;23.988;2024-01-10T01:59:57;15.55;;;12.25;;
55146;SDS011;41039;49.830;23.988;2024-01-10T02:02:23;14.55;;;12.63;;
55146;SDS011;41039;49.830;23.988;2024-01-10T02:04:49;13.48;;;12.02;;
55146;SDS011;41039;49.830;23.988;2024-01-10T02:07:14;14.10;;;12.07;;
55146;SDS011;41039;49.830;23.988;2024-01-10T02:09:39;12.43;;;11.13;;
55146;SDS011;41039;49.830;23.988;2024-01-10T02:12:05;13.13;;;11.73;;
55146;SDS011;41039;49.830;23.988;2024-01-10T02:14:30;14.85;;;12.27;;
55146;SDS011;41039;49.830;23.988;2024-01-10T02:16:56;14.40;;;12.52;;
55146;SDS011;41039;49.830;23.988;2024-01-10T02:19:22;14.00;;;12.10;;
55146;SDS011;41039;49.830;23.988;2024-01-10T02:21:47;15.05;;;12.60;;
55146;SDS011;41039;49.830;23.988;2024-01-10T02:24:12;14.13;;;11.93;;
55146;SDS011;41039;49.830;23.988;2024-01-10T02:26:38;16.33;;;12.90;;
55146;SDS011;41039;49.830;23.988;2024-01-10T02:29:04;15.00;;;12.85;;
55146;SDS011;41039;49.830;23.988;2024-01-10T02:31:29;15.35;;;13.50;;
55146;SDS011;41039;49.830;23.988;2024-01-10T02:33:54;14.23;;;12.67;;
55146;SDS011;41039;49.830;23.988;2024-01-10T02:36:19;14.93;;;12.73;;
55146;SDS011;41039;49.830;23.988;2024-01-10T02:38:44;15.17;;;13.30;;
55146;SDS011;41039;49.830;23.988;2024-01-10T02:41:10;14.80;;;13.20;;
55146;SDS011;41039;49.830;23.988;2024-01-10T02:43:35;15.87;;;13.47;;
55146;SDS011;41039;49.830;23.988;2024-01-10T02:46:00;14.37;;;12.67;;
55146;SDS011;41039;49.830;23.988;2024-01-10T02:48:25;16.97;;;13.83;;
55146;SDS011;41039;49.830;23.988;2024-01-10T02:50:51;15.88;;;13.10;;
55146;SDS011;41039;49.830;23.988;2024-01-10T02:53:16;15.20;;;13.23;;
55146;SDS011;41039;49.830;23.988;2024-01-10T02:55:42;16.07;;;13.10;;
55146;SDS011;41039;49.830;23.988;2024-01-10T02:58:08;16.45;;;13.68;;
55146;SDS011;41039;49.830;23.988;2024-01-10T03:00:33;15.77;;;13.35;;
55146;SDS011;41039;49.830;23.988;2024-01-10T03:02:58;14.68;;;13.07;;
55146;SDS011;41039;49.830;23.988;2024-01-10T03:05:24;15.23;;;12.57;;
55146;SDS011;41039;49.830;23.988;2024-01-10T03:07:49;15.60;;;13.17;;
55146;SDS011;41039;49.830;23.988;2024-01-10T03:10:14;15.17;;;13.03;;
55146;SDS011;41039;49.830;23.988;2024-01-10T03:12:39;16.75;;;13.30;;
55146;SDS011;41039;49.830;23.988;2024-01-10T03:15:05;16.08;;;13.77;;
55146;SDS011;41039;49.830;23.988;2024-01-10T03:17:31;14.95;;;13.38;;
55146;SDS011;41039;49.830;23.988;2024-01-10T03:19:58;16.98;;;14.63;;
55146;SDS011;41039;49.830;23.988;2024-01-10T03:22:24;15.77;;;13.73;;
55146;SDS011;41039;49.830;23.988;2024-01-10T03:24:49;15.77;;;14.07;;
55146;SDS011;41039;49.830;23.988;2024-01-10T03:27:14;17.87;;;14.73;;
55146;SDS011;41039;49.830;23.988;2024-01-10T03:29:39;16.80;;;14.43;;
55146;SDS011;41039;49.830;23.988;2024-01-10T03:32:05;15.60;;;13.70;;
55146;SDS011;41039;49.830;23.988;2024-01-10T03:34:30;15.30;;;13.70;;
55146;SDS011;41039;49.830;23.988;2024-01-10T03:36:56;18.10;;;14.57;;
55146;SDS011;41039;49.830;23.988;2024-01-10T03:39:21;17.52;;;14.90;;
55146;SDS011;41039;49.830;23.988;2024-01-10T03:41:46;15.65;;;13.70;;
55146;SDS011;41039;49.830;23.988;2024-01-10T03:44:12;16.92;;;13.63;;
55146;SDS011;41039;49.830;23.988;2024-01-10T03:46:37;15.30;;;13.70;;
55146;SDS011;41039;49.830;23.988;2024-01-10T03:49:02;16.17;;;13.95;;
55146;SDS011;41039;49.830;23.988;2024-01-10T03:51:28;15.13;;;13.43;;
55146;SDS011;41039;49.830;23.988;2024-01-10T03:53:54;17.70;;;15.70;;
55146;SDS011;41039;49.830;23.988;2024-01-10T03:56:20;15.55;;;13.80;;
55146;SDS011;41039;49.830;23.988;2024-01-10T03:58:45;19.55;;;14.82;;
55146;SDS011;41039;49.830;23.988;2024-01-10T04:01:13;16.05;;;13.88;;
55146;SDS011;41039;49.830;23.988;2024-01-10T04:03:38;16.58;;;14.77;;
55146;SDS011;41039;49.830;23.988;2024-01-10T04:06:06;16.80;;;14.38;;
55146;SDS011;41039;49.830;23.988;2024-01-10T04:08:31;15.55;;;13.82;;
55146;SDS011;41039;49.830;23.988;2024-01-10T04:10:57;17.45;;;14.77;;
55146;SDS011;41039;49.830;23.988;2024-01-10T04:13:22;16.33;;;13.95;;
55146;SDS011;41039;49.830;23.988;2024-01-10T04:15:48;16.20;;;14.00;;
55146;SDS011;41039;49.830;23.988;2024-01-10T04:18:14;16.90;;;15.10;;
55146;SDS011;41039;49.830;23.988;2024-01-10T04:20:39;17.55;;;14.35;;
55146;SDS011;41039;49.830;23.988;2024-01-10T04:23:04;16.67;;;13.93;;
55146;SDS011;41039;49.830;23.988;2024-01-10T04:25:29;16.25;;;14.55;;
55146;SDS011;41039;49.830;23.988;2024-01-10T04:27:55;16.85;;;14.25;;
55146;SDS011;41039;49.830;23.988;2024-01-10T04:30:21;16.88;;;14.82;;
55146;SDS011;41039;49.830;23.988;2024-01-10T04:32:47;16.30;;;14.43;;
55146;SDS011;41039;49.830;23.988;2024-01-10T04:35:12;17.03;;;14.83;;
55146;SDS011;41039;49.830;23.988;2024-01-10T04:37:37;16.20;;;14.50;;
55146;SDS011;41039;49.830;23.988;2024-01-10T04:40:03;17.15;;;14.60;;
55146;SDS011;41039;49.830;23.988;2024-01-10T04:42:29;17.42;;;15.52;;
55146;SDS011;41039;49.830;23.988;2024-01-10T04:44:55;17.75;;;15.02;;
55146;SDS011;41039;49.830;23.988;2024-01-10T04:47:20;16.83;;;14.85;;
55146;SDS011;41039;49.830;23.988;2024-01-10T04:49:45;16.85;;;15.05;;
55146;SDS011;41039;49.830;23.988;2024-01-10T04:52:10;17.37;;;15.53;;
55146;SDS011;41039;49.830;23.988;2024-01-10T04:54:36;18.15;;;14.85;;
55146;SDS011;41039;49.830;23.988;2024-01-10T04:57:01;17.15;;;15.30;;
55146;SDS011;41039;49.830;23.988;2024-01-10T04:59:26;16.58;;;14.70;;
55146;SDS011;41039;49.830;23.988;2024-01-10T05:01:51;16.58;;;14.85;;
55146;SDS011;41039;49.830;23.988;2024-01-10T05:04:17;19.98;;;15.63;;
55146;SDS011;41039;49.830;23.988;2024-01-10T05:06:42;18.65;;;15.65;;
55146;SDS011;41039;49.830;23.988;2024-01-10T05:09:07;18.97;;;16.30;;
55146;SDS011;41039;49.830;23.988;2024-01-10T05:11:32;18.47;;;16.43;;
55146;SDS011;41039;49.830;23.988;2024-01-10T05:14:00;17.38;;;15.48;;
55146;SDS011;41039;49.830;23.988;2024-01-10T05:16:26;18.10;;;15.18;;
55146;SDS011;41039;49.830;23.988;2024-01-10T05:18:51;17.77;;;15.57;;
55146;SDS011;41039;49.830;23.988;2024-01-10T05:21:16;18.30;;;15.83;;
55146;SDS011;41039;49.830;23.988;2024-01-10T05:23:42;18.25;;;15.18;;
55146;SDS011;41039;49.830;23.988;2024-01-10T05:26:07;16.93;;;14.73;;
55146;SDS011;41039;49.830;23.988;2024-01-10T05:28:32;17.08;;;14.85;;
55146;SDS011;41039;49.830;23.988;2024-01-10T05:30:58;17.47;;;15.13;;
55146;SDS011;41039;49.830;23.988;2024-01-10T05:33:24;18.20;;;15.82;;
55146;SDS011;41039;49.830;23.988;2024-01-10T05:35:49;18.70;;;16.33;;
55146;SDS011;41039;49.830;23.988;2024-01-10T05:38:14;18.03;;;15.47;;
55146;SDS011;41039;49.830;23.988;2024-01-10T05:40:39;16.95;;;14.70;;
55146;SDS011;41039;49.830;23.988;2024-01-10T05:43:05;17.65;;;15.00;;
55146;SDS011;41039;49.830;23.988;2024-01-10T05:45:32;18.15;;;15.68;;
55146;SDS011;41039;49.830;23.988;2024-01-10T05:47:57;17.98;;;15.70;;
55146;SDS011;41039;49.830;23.988;2024-01-10T05:50:23;16.58;;;14.73;;
55146;SDS011;41039;49.830;23.988;2024-01-10T05:52:48;16.43;;;14.40;;
55146;SDS011;41039;49.830;23.988;2024-01-10T05:55:13;17.70;;;15.60;;
55146;SDS011;41039;49.830;23.988;2024-01-10T05:57:39;16.98;;;15.10;;
55146;SDS011;41039;49.830;23.988;2024-01-10T06:00:04;18.45;;;15.65;;
55146;SDS011;41039;49.830;23.988;2024-01-10T06:02:35;17.85;;;15.57;;
55146;SDS011;41039;49.830;23.988;2024-01-10T06:05:00;17.95;;;15.45;;
55146;SDS011;41039;49.830;23.988;2024-01-10T06:07:25;16.67;;;14.40;;
55146;SDS011;41039;49.830;23.988;2024-01-10T06:09:50;16.45;;;14.70;;
55146;SDS011;41039;49.830;23.988;2024-01-10T06:12:16;17.10;;;15.13;;
55146;SDS011;41039;49.830;23.988;2024-01-10T06:14:41;16.88;;;14.93;;
55146;SDS011;41039;49.830;23.988;2024-01-10T06:17:06;17.33;;;14.53;;
55146;SDS011;41039;49.830;23.988;2024-01-10T06:19:31;16.70;;;14.70;;
55146;SDS011;41039;49.830;23.988;2024-01-10T06:21:57;16.70;;;14.95;;
55146;SDS011;41039;49.830;23.988;2024-01-10T06:24:22;15.32;;;13.68;;
55146;SDS011;41039;49.830;23.988;2024-01-10T06:26:47;16.20;;;14.50;;
55146;SDS011;41039;49.830;23.988;2024-01-10T06:29:14;17.17;;;14.95;;
55146;SDS011;41039;49.830;23.988;2024-01-10T06:31:39;17.55;;;14.93;;
55146;SDS011;41039;49.830;23.988;2024-01-10T06:34:05;16.60;;;14.80;;
55146;SDS011;41039;49.830;23.988;2024-01-10T06:36:30;17.93;;;15.30;;
55146;SDS011;41039;49.830;23.988;2024-01-10T06:38:55;16.73;;;14.87;;
55146;SDS011;41039;49.830;23.988;2024-01-10T06:41:21;16.42;;;14.73;;
55146;SDS011;41039;49.830;23.988;2024-01-10T06:43:49;17.58;;;14.82;;
55146;SDS011;41039;49.830;23.988;2024-01-10T06:46:14;17.33;;;14.97;;
55146;SDS011;41039;49.830;23.988;2024-01-10T06:48:39;15.43;;;13.60;;
55146;SDS011;41039;49.830;23.988;2024-01-10T06:51:09;16.60;;;14.80;;
55146;SDS011;41039;49.830;23.988;2024-01-10T06:53:34;17.02;;;14.82;;
55146;SDS011;41039;49.830;23.988;2024-01-10T06:55:59;15.93;;;14.23;;
55146;SDS011;41039;49.830;23.988;2024-01-10T06:58:25;16.33;;;13.85;;
55146;SDS011;41039;49.830;23.988;2024-01-10T07:00:50;16.43;;;14.73;;
55146;SDS011;41039;49.830;23.988;2024-01-10T07:03:15;17.15;;;14.50;;
55146;SDS011;41039;49.830;23.988;2024-01-10T07:05:41;16.60;;;14.82;;
55146;SDS011;41039;49.830;23.988;2024-01-10T07:08:06;17.27;;;15.37;;
55146;SDS011;41039;49.830;23.988;2024-01-10T07:10:31;16.93;;;14.10;;
55146;SDS011;41039;49.830;23.988;2024-01-10T07:12:56;15.57;;;13.60;;
55146;SDS011;41039;49.830;23.988;2024-01-10T07:15:22;16.65;;;14.27;;
55146;SDS011;41039;49.830;23.988;2024-01-10T07:17:47;17.20;;;15.40;;
55146;SDS011;41039;49.830;23.988;2024-01-10T07:20:13;16.92;;;14.77;;
55146;SDS011;41039;49.830;23.988;2024-01-10T07:22:38;17.13;;;14.95;;
55146;SDS011;41039;49.830;23.988;2024-01-10T07:25:09;16.55;;;14.25;;
55146;SDS011;41039;49.830;23.988;2024-01-10T07:27:34;16.33;;;14.35;;
55146;SDS011;41039;49.830;23.988;2024-01-10T07:30:02;16.42;;;14.60;;
55146;SDS011;41039;49.830;23.988;2024-01-10T07:32:28;16.75;;;14.95;;
55146;SDS011;41039;49.830;23.988;2024-01-10T07:34:54;15.13;;;13.17;;
55146;SDS011;41039;49.830;23.988;2024-01-10T07:37:19;16.93;;;14.77;;
55146;SDS011;41039;49.830;23.988;2024-01-10T07:39:46;16.20;;;14.10;;
55146;SDS011;41039;49.830;23.988;2024-01-10T07:42:11;16.90;;;14.50;;
55146;SDS011;41039;49.830;23.988;2024-01-10T07:44:37;16.30;;;13.90;;
55146;SDS011;41039;49.830;23.988;2024-01-10T07:47:02;16.38;;;14.07;;
55146;SDS011;41039;49.830;23.988;2024-01-10T07:49:27;16.52;;;14.73;;
55146;SDS011;41039;49.830;23.988;2024-01-10T07:51:55;16.65;;;14.32;;
55146;SDS011;41039;49.830;23.988;2024-01-10T07:54:20;16.75;;;14.70;;
55146;SDS011;41039;49.830;23.988;2024-01-10T07:56:45;18.03;;;15.93;;
55146;SDS011;41039;49.830;23.988;2024-01-10T07:59:10;16.70;;;14.83;;
55146;SDS011;41039;49.830;23.988;2024-01-10T08:01:39;16.42;;;14.55;;
55146;SDS011;41039;49.830;23.988;2024-01-10T08:04:04;18.20;;;14.93;;
55146;SDS011;41039;49.830;23.988;2024-01-10T08:06:30;16.70;;;14.77;;
55146;SDS011;41039;49.830;23.988;2024-01-10T08:08:55;19.63;;;15.70;;
55146;SDS011;41039;49.830;23.988;2024-01-10T08:11:20;17.63;;;15.60;;
55146;SDS011;41039;49.830;23.988;2024-01-10T08:13:45;18.67;;;15.23;;
55146;SDS011;41039;49.830;23.988;2024-01-10T08:16:11;16.33;;;14.63;;
55146;SDS011;41039;49.830;23.988;2024-01-10T08:18:36;18.03;;;16.13;;
55146;SDS011;41039;49.830;23.988;2024-01-10T08:21:01;16.67;;;14.37;;
55146;SDS011;41039;49.830;23.988;2024-01-10T08:23:26;15.43;;;13.82;;
55146;SDS011;41039;49.830;23.988;2024-01-10T08:25:51;15.80;;;13.97;;
55146;SDS011;41039;49.830;23.988;2024-01-10T08:28:17;15.60;;;13.70;;
55146;SDS011;41039;49.830;23.988;2024-01-10T08:30:42;16.45;;;14.50;;
55146;SDS011;41039;49.830;23.988;2024-01-10T08:33:07;18.05;;;15.55;;
55146;SDS011;41039;49.830;23.988;2024-01-10T08:35:32;16.67;;;14.90;;
55146;SDS011;41039;49.830;23.988;2024-01-10T08:37:58;16.77;;;14.77;;
55146;SDS011;41039;49.830;23.988;2024-01-10T08:40:23;17.13;;;15.30;;
55146;SDS011;41039;49.830;23.988;2024-01-10T08:42:51;18.67;;;15.90;;
55146;SDS011;41039;49.830;23.988;2024-01-10T08:45:16;17.58;;;14.98;;
55146;SDS011;41039;49.830;23.988;2024-01-10T08:47:41;16.93;;;14.97;;
55146;SDS011;41039;49.830;23.988;2024-01-10T08:50:06;18.25;;;14.98;;
55146;SDS011;41039;49.830;23.988;2024-01-10T08:52:34;17.25;;;14.85;;
55146;SDS011;41039;49.830;23.988;2024-01-10T08:54:59;16.98;;;15.18;;
55146;SDS011;41039;49.830;23.988;2024-01-10T08:57:24;17.90;;;14.13;;
55146;SDS011;41039;49.830;23.988;2024-01-10T08:59:52;17.48;;;15.68;;
55146;SDS011;41039;49.830;23.988;2024-01-10T09:02:17;16.42;;;13.50;;
55146;SDS011;41039;49.830;23.988;2024-01-10T09:04:42;17.42;;;14.32;;
55146;SDS011;41039;49.830;23.988;2024-01-10T09:07:07;18.13;;;14.50;;
55146;SDS011;41039;49.830;23.988;2024-01-10T09:09:34;18.15;;;14.63;;
55146;SDS011;41039;49.830;23.988;2024-01-10T09:11:59;16.15;;;14.27;;
55146;SDS011;41039;49.830;23.988;2024-01-10T09:14:25;17.70;;;15.32;;
55146;SDS011;41039;49.830;23.988;2024-01-10T09:16:50;18.40;;;14.50;;
55146;SDS011;41039;49.830;23.988;2024-01-10T09:19:15;16.70;;;14.90;;
55146;SDS011;41039;49.830;23.988;2024-01-10T09:21:40;15.48;;;13.77;;
55146;SDS011;41039;49.830;23.988;2024-01-10T09:24:06;15.70;;;13.88;;
55146;SDS011;41039;49.830;23.988;2024-01-10T09:26:34;15.98;;;14.20;;
55146;SDS011;41039;49.830;23.988;2024-01-10T09:28:59;16.15;;;14.45;;
55146;SDS011;41039;49.830;23.988;2024-01-10T09:31:24;16.98;;;15.00;;
55146;SDS011;41039;49.830;23.988;2024-01-10T09:33:49;15.50;;;13.70;;
55146;SDS011;41039;49.830;23.988;2024-01-10T09:36:15;15.80;;;14.07;;
55146;SDS011;41039;49.830;23.988;2024-01-10T09:38:40;15.52;;;13.73;;
55146;SDS011;41039;49.830;23.988;2024-01-10T09:41:05;15.40;;;13.65;;
55146;SDS011;41039;49.830;23.988;2024-01-10T09:43:31;16.13;;;14.05;;
55146;SDS011;41039;49.830;23.988;2024-01-10T09:45:57;14.90;;;13.02;;
55146;SDS011;41039;49.830;23.988;2024-01-10T09:48:23;18.45;;;14.82;;
55146;SDS011;41039;49.830;23.988;2024-01-10T09:50:49;18.95;;;15.02;;
55146;SDS011;41039;49.830;23.988;2024-01-10T09:53:24;18.83;;;15.88;;
55146;SDS011;41039;49.830;23.988;2024-01-10T09:55:50;17.73;;;15.57;;
55146;SDS011;41039;49.830;23.988;2024-01-10T09:58:15;17.13;;;13.73;;
55146;SDS011;41039;49.830;23.988;2024-01-10T10:00:41;19.33;;;14.48;;
55146;SDS011;41039;49.830;23.988;2024-01-10T10:03:09;18.07;;;15.43;;
55146;SDS011;41039;49.830;23.988;2024-01-10T10:05:38;17.73;;;14.90;;
55146;SDS011;41039;49.830;23.988;2024-01-10T10:08:06;15.40;;;13.77;;
55146;SDS011;41039;49.830;23.988;2024-01-10T10:10:32;15.63;;;13.73;;
55146;SDS011;41039;49.830;23.988;2024-01-10T10:12:57;15.93;;;14.07;;
55146;SDS011;41039;49.830;23.988;2024-01-10T10:15:23;17.50;;;14.57;;
55146;SDS011;41039;49.830;23.988;2024-01-10T10:17:49;17.85;;;14.48;;
55146;SDS011;41039;49.830;23.988;2024-01-10T10:20:19;15.70;;;14.00;;
55146;SDS011;41039;49.830;23.988;2024-01-10T10:22:58;17.92;;;14.68;;
55146;SDS011;41039;49.830;23.988;2024-01-10T10:25:35;16.73;;;14.48;;
55146;SDS011;41039;49.830;23.988;2024-01-10T10:28:01;15.90;;;14.05;;
55146;SDS011;41039;49.830;23.988;2024-01-10T10:30:27;16.65;;;14.02;;
55146;SDS011;41039;49.830;23.988;2024-01-10T10:32:52;16.15;;;14.07;;
55146;SDS011;41039;49.830;23.988;2024-01-10T10:35:21;16.70;;;13.65;;
55146;SDS011;41039;49.830;23.988;2024-01-10T10:37:49;15.48;;;13.40;;
55146;SDS011;41039;49.830;23.988;2024-01-10T10:40:15;15.20;;;13.30;;
55146;SDS011;41039;49.830;23.988;2024-01-10T10:42:43;17.33;;;14.75;;
55146;SDS011;41039;49.830;23.988;2024-01-10T10:45:09;15.85;;;13.38;;
55146;SDS011;41039;49.830;23.988;2024-01-10T10:47:36;18.20;;;14.20;;
55146;SDS011;41039;49.830;23.988;2024-01-10T10:50:02;16.48;;;14.23;;
55146;SDS011;41039;49.830;23.988;2024-01-10T10:52:28;17.02;;;13.65;;
55146;SDS011;41039;49.830;23.988;2024-01-10T10:54:54;16.48;;;14.70;;
55146;SDS011;41039;49.830;23.988;2024-01-10T10:57:20;15.43;;;13.32;;
55146;SDS011;41039;49.830;23.988;2024-01-10T10:59:46;16.27;;;14.35;;
55146;SDS011;41039;49.830;23.988;2024-01-10T11:02:12;15.23;;;13.35;;
55146;SDS011;41039;49.830;23.988;2024-01-10T11:04:40;14.48;;;12.93;;
55146;SDS011;41039;49.830;23.988;2024-01-10T11:07:06;13.93;;;12.43;;
55146;SDS011;41039;49.830;23.988;2024-01-10T11:09:32;16.33;;;13.52;;
55146;SDS011;41039;49.830;23.988;2024-01-10T11:12:06;15.25;;;13.27;;
55146;SDS011;41039;49.830;23.988;2024-01-10T11:17:30;17.92;;;13.98;;
55146;SDS011;41039;49.830;23.988;2024-01-10T11:22:37;14.45;;;12.40;;
55146;SDS011;41039;49.830;23.988;2024-01-10T11:25:04;15.75;;;13.48;;
55146;SDS011;41039;49.830;23.988;2024-01-10T11:27:30;14.73;;;12.93;;
55146;SDS011;41039;49.830;23.988;2024-01-10T11:29:55;15.43;;;13.50;;
55146;SDS011;41039;49.830;23.988;2024-01-10T11:32:22;13.98;;;11.88;;
55146;SDS011;41039;49.830;23.988;2024-01-10T11:37:15;14.80;;;12.40;;
55146;SDS011;41039;49.830;23.988;2024-01-10T11:39:41;17.80;;;13.70;;
55146;SDS011;41039;49.830;23.988;2024-01-10T11:42:07;14.77;;;12.88;;
55146;SDS011;41039;49.830;23.988;2024-01-10T11:44:34;14.05;;;12.43;;
55146;SDS011;41039;49.830;23.988;2024-01-10T11:47:01;15.48;;;12.68;;
55146;SDS011;41039;49.830;23.988;2024-01-10T11:49:28;15.20;;;13.00;;
55146;SDS011;41039;49.830;23.988;2024-01-10T11:51:55;16.30;;;13.18;;
55146;SDS011;41039;49.830;23.988;2024-01-10T11:54:40;15.20;;;12.43;;
55146;SDS011;41039;49.830;23.988;2024-01-10T11:57:22;16.65;;;12.60;;
55146;SDS011;41039;49.830;23.988;2024-01-10T11:59:56;17.27;;;13.73;;
55146;SDS011;41039;49.830;23.988;2024-01-10T12:02:24;15.48;;;13.45;;
55146;SDS011;41039;49.830;23.988;2024-01-10T12:04:51;14.82;;;12.32;;
55146;SDS011;41039;49.830;23.988;2024-01-10T12:07:16;15.27;;;13.25;;
55146;SDS011;41039;49.830;23.988;2024-01-10T12:09:42;16.55;;;13.57;;
55146;SDS011;41039;49.830;23.988;2024-01-10T12:12:07;15.63;;;13.50;;
55146;SDS011;41039;49.830;23.988;2024-01-10T12:14:33;14.48;;;12.73;;
55146;SDS011;41039;49.830;23.988;2024-01-10T12:16:59;15.20;;;12.88;;
55146;SDS011;41039;49.830;23.988;2024-01-10T12:19:24;15.35;;;12.80;;
55146;SDS011;41039;49.830;23.988;2024-01-10T12:21:49;16.17;;;13.70;;
55146;SDS011;41039;49.830;23.988;2024-01-10T12:24:15;17.45;;;14.73;;
55146;SDS011;41039;49.830;23.988;2024-01-10T12:26:44;20.57;;;16.60;;
55146;SDS011;41039;49.830;23.988;2024-01-10T12:29:09;22.40;;;16.25;;
55146;SDS011;41039;49.830;23.988;2024-01-10T12:31:36;22.05;;;16.75;;
55146;SDS011;41039;49.830;23.988;2024-01-10T12:34:02;20.85;;;18.15;;
55146;SDS011;41039;49.830;23.988;2024-01-10T12:36:27;20.77;;;17.27;;
55146;SDS011;41039;49.830;23.988;2024-01-10T12:38:53;23.50;;;19.53;;
55146;SDS011;41039;49.830;23.988;2024-01-10T12:41:19;24.38;;;19.85;;
55146;SDS011;41039;49.830;23.988;2024-01-10T12:43:53;23.92;;;20.17;;
55146;SDS011;41039;49.830;23.988;2024-01-10T12:46:22;23.70;;;19.65;;
55146;SDS011;41039;49.830;23.988;2024-01-10T12:51:28;24.20;;;17.95;;
55146;SDS011;41039;49.830;23.988;2024-01-10T12:53:56;23.50;;;18.83;;
55146;SDS011;41039;49.830;23.988;2024-01-10T12:56:23;20.50;;;17.13;;
55146;SDS011;41039;49.830;23.988;2024-01-10T12:58:48;19.77;;;16.25;;
55146;SDS011;41039;49.830;23.988;2024-01-10T13:01:14;22.15;;;17.88;;
55146;SDS011;41039;49.830;23.988;2024-01-10T13:03:40;20.80;;;17.60;;
55146;SDS011;41039;49.830;23.988;2024-01-10T13:06:05;21.98;;;18.30;;
55146;SDS011;41039;49.830;23.988;2024-01-10T13:08:31;20.30;;;17.30;;
55146;SDS011;41039;49.830;23.988;2024-01-10T13:10:57;20.98;;;17.23;;
55146;SDS011;41039;49.830;23.988;2024-01-10T13:13:22;21.58;;;17.05;;
55146;SDS011;41039;49.830;23.988;2024-01-10T13:15:48;20.60;;;16.80;;
55146;SDS011;41039;49.830;23.988;2024-01-10T13:18:13;20.48;;;17.38;;
55146;SDS011;41039;49.830;23.988;2024-01-10T13:20:40;19.35;;;15.88;;
55146;SDS011;41039;49.830;23.988;2024-01-10T13:23:05;19.38;;;16.58;;
55146;SDS011;41039;49.830;23.988;2024-01-10T13:25:31;18.90;;;15.65;;
55146;SDS011;41039;49.830;23.988;2024-01-10T13:27:56;18.67;;;16.35;;
55146;SDS011;41039;49.830;23.988;2024-01-10T13:30:22;18.13;;;15.88;;
55146;SDS011;41039;49.830;23.988;2024-01-10T13:32:47;19.80;;;15.73;;
55146;SDS011;41039;49.830;23.988;2024-01-10T13:35:13;19.50;;;16.23;;
55146;SDS011;41039;49.830;23.988;2024-01-10T13:37:39;21.00;;;17.10;;
55146;SDS011;41039;49.830;23.988;2024-01-10T13:40:04;17.85;;;14.73;;
55146;SDS011;41039;49.830;23.988;2024-01-10T13:42:32;18.80;;;15.77;;
55146;SDS011;41039;49.830;23.988;2024-01-10T13:44:58;19.60;;;15.23;;
55146;SDS011;41039;49.830;23.988;2024-01-10T13:47:23;18.95;;;15.88;;
55146;SDS011;41039;49.830;23.988;2024-01-10T13:49:48;18.98;;;15.70;;
55146;SDS011;41039;49.830;23.988;2024-01-10T13:52:13;18.98;;;15.52;;
55146;SDS011;41039;49.830;23.988;2024-01-10T13:54:39;19.35;;;15.32;;
55146;SDS011;41039;49.830;23.988;2024-01-10T13:57:04;17.30;;;14.90;;
55146;SDS011;41039;49.830;23.988;2024-01-10T13:59:29;19.90;;;16.10;;
55146;SDS011;41039;49.830;23.988;2024-01-10T14:01:55;19.02;;;15.70;;
55146;SDS011;41039;49.830;23.988;2024-01-10T14:04:20;18.85;;;15.82;;
55146;SDS011;41039;49.830;23.988;2024-01-10T14:06:46;19.52;;;15.80;;
55146;SDS011;41039;49.830;23.988;2024-01-10T14:09:12;20.17;;;15.90;;
55146;SDS011;41039;49.830;23.988;2024-01-10T14:11:37;20.77;;;16.50;;